Time;durP1;ratioP1;P1;durP2;ratioP2;P2;SDS_P1;SDS_P2;PMS_P1;PMS_P2;Temp;Humidity;BMP_temperature;BMP_pressure;BME280_temperature;BME280_humidity;BME280_pressure;Samples;Min_cycle;Max_cycle;Signal;HPM_P1;HPM_P2
2023/04/04 00:02:07;;;;;;;27.77;12.80;;;;;;;3.89;85.61;100735.31;4885896;28;20057;-54
2023/04/04 00:04:39;;;;;;;25.58;11.30;;;;;;;3.43;84.49;100675.88;4893997;28;20551;-54
2023/04/04 00:07:13;;;;;;;21.45;11.25;;;;;;;4.15;84.57;100691.81;4893974;28;20562;-51
2023/04/04 00:09:47;;;;;;;22.60;10.35;;;;;;;4.28;83.93;100704.09;4894960;28;20260;-53
2023/04/04 00:12:20;;;;;;;27.98;11.25;;;;;;;4.39;83.33;100721.50;4911492;28;20106;-51
2023/04/04 00:14:56;;;;;;;24.55;11.25;;;;;;;4.49;82.66;100705.28;4906932;28;22004;-51
2023/04/04 00:17:28;;;;;;;22.40;10.50;;;;;;;4.49;82.20;100682.00;4910382;28;20094;-51
2023/04/04 00:20:00;;;;;;;28.75;12.02;;;;;;;4.54;81.77;100712.28;4914025;28;20132;-52
2023/04/04 00:22:36;;;;;;;26.10;11.32;;;;;;;4.62;81.80;100694.28;4911541;28;20110;-49
2023/04/04 00:25:09;;;;;;;33.53;12.75;;;;;;;4.69;81.17;100700.41;4901556;28;20052;-53
2023/04/04 00:27:43;;;;;;;29.98;12.13;;;;;;;4.69;81.18;100724.59;4910653;28;20402;-53
2023/04/04 00:30:16;;;;;;;31.92;11.85;;;;;;;4.77;81.44;100729.88;4907431;28;20080;-51
2023/04/04 00:32:49;;;;;;;28.58;11.98;;;;;;;4.88;81.10;100723.13;4907954;28;20406;-49
2023/04/04 00:35:22;;;;;;;23.95;10.27;;;;;;;5.02;80.97;100709.47;4881652;28;20488;-54
2023/04/04 00:37:57;;;;;;;20.27;9.75;;;;;;;5.19;80.54;100711.47;4891647;28;20771;-53
2023/04/04 00:40:28;;;;;;;22.02;10.40;;;;;;;5.28;79.79;100717.59;4881487;28;20043;-53
2023/04/04 00:43:02;;;;;;;23.55;9.82;;;;;;;5.41;79.31;100724.66;4892245;28;20049;-51
2023/04/04 00:45:35;;;;;;;24.10;10.00;;;;;;;5.63;78.92;100742.22;4892498;28;20467;-54
2023/04/04 00:48:09;;;;;;;27.45;10.02;;;;;;;5.78;78.29;100735.47;4882386;28;20099;-54
2023/04/04 00:50:41;;;;;;;19.88;10.57;;;;;;;5.88;77.58;100732.09;4891917;28;20367;-53
2023/04/04 00:53:15;;;;;;;18.27;10.55;;;;;;;5.92;77.42;100718.34;4891532;28;20045;-53
2023/04/04 00:55:47;;;;;;;21.30;10.35;;;;;;;5.97;77.45;100703.72;4882564;28;20128;-52
2023/04/04 00:58:21;;;;;;;21.50;10.10;;;;;;;6.12;76.90;100699.53;4891519;28;20049;-51
2023/04/04 01:00:53;;;;;;;23.60;10.13;;;;;;;6.30;76.32;100694.47;4891416;28;20431;-53
2023/04/04 01:03:26;;;;;;;22.83;9.57;;;;;;;6.60;75.76;100677.38;4890806;28;20066;-54
2023/04/04 01:06:02;;;;;;;19.80;9.77;;;;;;;6.81;75.60;100659.31;4895087;28;20053;-50
2023/04/04 01:08:38;;;;;;;17.58;9.73;;;;;;;7.14;75.17;100665.56;4894713;28;20049;-52
2023/04/04 01:11:12;;;;;;;22.60;9.82;;;;;;;7.28;73.85;100663.00;4880162;28;20713;-50
2023/04/04 01:13:44;;;;;;;20.20;9.50;;;;;;;7.41;73.25;100664.75;4888514;28;20463;-51
2023/04/04 01:16:17;;;;;;;28.38;11.02;;;;;;;7.45;72.74;100663.06;4881611;28;20052;-50
2023/04/04 01:18:50;;;;;;;23.55;9.43;;;;;;;7.42;72.82;100660.47;4901612;28;20044;-54
2023/04/04 01:21:25;;;;;;;16.38;8.18;;;;;;;7.47;72.73;100648.34;4896198;28;20053;-53
2023/04/04 01:24:04;;;;;;;15.45;6.95;;;;;;;7.47;72.07;100632.75;4884431;28;20151;-52
2023/04/04 01:26:41;;;;;;;13.82;6.50;;;;;;;7.50;72.19;100632.72;4880716;28;20045;-50
2023/04/04 01:29:13;;;;;;;12.43;5.82;;;;;;;7.44;71.63;100648.31;4886880;28;20055;-54
2023/04/04 01:31:49;;;;;;;13.60;5.70;;;;;;;7.43;71.98;100629.25;4889193;28;20073;-53
2023/04/04 01:34:33;;;;;;;13.55;6.10;;;;;;;7.51;71.91;100611.06;4894018;28;20044;-53
2023/04/04 01:37:08;;;;;;;10.50;6.20;;;;;;;7.64;72.46;100614.53;4878898;28;20243;-55
2023/04/04 01:39:48;;;;;;;12.10;6.68;;;;;;;7.81;71.55;100596.34;4893350;28;20049;-50
2023/04/04 01:42:21;;;;;;;;;;;;;;;7.86;71.39;100590.31;4884190;28;20163;-52
2023/04/04 01:45:01;;;;;;;13.27;6.00;;;;;;;7.92;71.05;100585.09;4894969;28;19924;-54
2023/04/04 01:47:40;;;;;;;14.27;6.13;;;;;;;8.04;70.52;100579.00;4884828;28;20888;-50
2023/04/04 01:50:13;;;;;;;12.53;6.07;;;;;;;8.08;70.71;100567.72;4885378;28;20061;-53
2023/04/04 01:52:46;;;;;;;13.30;6.25;;;;;;;8.26;70.68;100568.53;4892593;28;20113;-52
2023/04/04 01:55:18;;;;;;;13.40;6.47;;;;;;;8.19;69.63;100558.16;4890693;28;20403;-52
2023/04/04 01:57:52;;;;;;;13.02;6.75;;;;;;;8.15;70.03;100552.97;4881512;28;20049;-52
2023/04/04 02:00:24;;;;;;;13.68;7.05;;;;;;;8.29;69.96;100558.16;4881399;28;20064;-53
2023/04/04 02:02:57;;;;;;;13.77;6.60;;;;;;;8.44;69.98;100552.94;4874257;28;20058;-52
2023/04/04 02:05:29;;;;;;;13.80;6.28;;;;;;;8.47;69.61;100558.13;4881945;28;20045;-54
2023/04/04 02:08:02;;;;;;;15.00;6.90;;;;;;;8.55;69.59;100551.16;4881259;28;20053;-52
2023/04/04 02:10:34;;;;;;;22.63;7.70;;;;;;;8.51;69.04;100527.72;4887324;28;20466;-51
2023/04/04 02:13:08;;;;;;;12.20;6.47;;;;;;;8.57;69.60;100518.16;4888488;28;20496;-53
2023/04/04 02:15:41;;;;;;;17.27;7.05;;;;;;;8.60;68.09;100501.66;4894427;28;20475;-51
2023/04/04 02:18:13;;;;;;;12.05;6.78;;;;;;;8.69;68.95;100496.41;4894361;28;20124;-54
2023/04/04 02:20:46;;;;;;;15.60;7.63;;;;;;;8.81;69.09;100487.63;4891132;28;20053;-53
2023/04/04 02:23:18;;;;;;;11.80;7.10;;;;;;;8.83;67.84;100478.06;4894484;28;20608;-53
2023/04/04 02:25:52;;;;;;;12.10;6.45;;;;;;;8.39;67.67;100414.03;4894533;28;20045;-55
2023/04/04 02:28:26;;;;;;;15.82;6.97;;;;;;;8.74;68.65;100472.94;4893721;28;20049;-52
2023/04/04 02:31:04;;;;;;;14.70;7.43;;;;;;;8.82;68.51;100481.56;4884412;28;20071;-53
2023/04/04 02:33:36;;;;;;;17.83;7.53;;;;;;;8.87;68.11;100474.59;4890565;28;21402;-54
2023/04/04 02:36:09;;;;;;;21.13;8.15;;;;;;;8.97;68.43;100454.53;4897047;28;20155;-53
2023/04/04 02:38:41;;;;;;;14.07;7.97;;;;;;;8.89;68.35;100436.34;4894067;28;20057;-51
2023/04/04 02:41:13;;;;;;;14.40;6.93;;;;;;;8.96;68.30;100442.38;4911715;28;20056;-53
2023/04/04 02:44:14;;;;;;;22.02;7.68;;;;;;;8.97;68.24;100455.41;4885549;28;20145;-53
2023/04/04 02:47:04;;;;;;;11.43;6.97;;;;;;;8.85;68.48;100455.47;4882712;28;20060;-55
2023/04/04 02:49:40;;;;;;;20.20;7.35;;;;;;;8.96;68.74;100448.47;4884283;28;20049;-55
2023/04/04 02:52:12;;;;;;;18.65;7.70;;;;;;;9.00;68.46;100439.75;4894958;28;20137;-56
2023/04/04 02:54:45;;;;;;;13.30;7.35;;;;;;;8.90;68.65;100438.06;4893049;28;20049;-56
2023/04/04 02:57:16;;;;;;;18.35;8.35;;;;;;;8.89;68.64;100431.16;4885345;28;20145;-56
2023/04/04 02:59:50;;;;;;;18.48;7.75;;;;;;;8.96;68.60;100427.63;4895309;28;20548;-56
2023/04/04 03:02:24;;;;;;;19.88;8.05;;;;;;;9.06;67.97;100418.84;4895140;28;20056;-57
2023/04/04 03:04:56;;;;;;;16.52;6.80;;;;;;;9.04;67.16;100415.41;4886288;28;20145;-56
2023/04/04 03:07:29;;;;;;;13.73;7.70;;;;;;;9.02;67.38;100411.94;4894458;28;20075;-56
2023/04/04 03:10:01;;;;;;;11.93;6.88;;;;;;;8.88;67.97;100372.06;4894778;28;20056;-56
2023/04/04 03:12:33;;;;;;;14.95;6.63;;;;;;;9.21;67.86;100401.34;4888994;28;20110;-57
2023/04/04 03:15:09;;;;;;;15.20;7.28;;;;;;;9.16;66.51;100397.91;4893744;28;20217;-57
2023/04/04 03:17:41;;;;;;;13.75;7.63;;;;;;;9.22;66.83;100387.44;4880469;28;20581;-56
2023/04/04 03:20:15;;;;;;;11.77;7.03;;;;;;;9.40;66.61;100382.03;4894788;28;20060;-56
2023/04/04 03:22:46;;;;;;;18.15;7.40;;;;;;;9.48;67.07;100385.47;4880782;28;20054;-57
2023/04/04 03:25:18;;;;;;;13.57;7.05;;;;;;;9.38;66.58;100323.81;4893983;28;20052;-57
2023/04/04 03:27:50;;;;;;;10.88;6.78;;;;;;;9.64;65.22;100375.72;4894394;28;20949;-57
2023/04/04 03:30:24;;;;;;;16.48;7.03;;;;;;;9.62;66.04;100377.47;4890909;28;20045;-57
2023/04/04 03:32:55;;;;;;;17.17;7.43;;;;;;;9.78;66.54;100367.72;4889291;28;20126;-56
2023/04/04 03:35:28;;;;;;;16.30;6.78;;;;;;;9.67;65.00;100364.38;4900242;28;20073;-56
2023/04/04 03:38:04;;;;;;;17.90;7.03;;;;;;;9.68;65.88;100371.31;4899405;28;20465;-56
2023/04/04 03:40:36;;;;;;;17.05;6.85;;;;;;;9.69;64.59;100368.72;4895262;28;20093;-56
2023/04/04 03:43:10;;;;;;;15.75;7.30;;;;;;;9.56;65.10;100359.31;4900511;28;20117;-56
2023/04/04 03:45:44;;;;;;;17.73;7.40;;;;;;;9.61;65.25;100367.03;4899367;28;20045;-57
2023/04/04 03:48:16;;;;;;;15.48;6.95;;;;;;;9.57;65.22;100358.41;4893405;28;20220;-56
2023/04/04 03:50:49;;;;;;;20.83;7.85;;;;;;;9.60;65.11;100363.59;4899332;28;20071;-56
2023/04/04 03:53:22;;;;;;;15.35;6.75;;;;;;;9.73;65.50;100359.09;4900422;28;20048;-56
2023/04/04 03:55:56;;;;;;;19.45;7.68;;;;;;;9.75;65.41;100346.91;4900515;28;20058;-57
2023/04/04 03:58:30;;;;;;;19.98;7.32;;;;;;;10.02;64.85;100360.50;4889245;28;20449;-56
2023/04/04 04:01:05;;;;;;;15.20;6.70;;;;;;;10.00;64.41;100347.47;4899835;28;20052;-57
2023/04/04 04:03:38;;;;;;;23.58;7.75;;;;;;;9.86;64.06;100323.28;4888581;28;20084;-57
2023/04/04 04:06:11;;;;;;;16.10;7.30;;;;;;;10.09;64.25;100346.50;4898552;28;20076;-56
2023/04/04 04:08:44;;;;;;;19.92;7.68;;;;;;;10.17;63.37;100342.03;4899773;28;20060;-57
2023/04/04 04:11:20;;;;;;;15.82;7.60;;;;;;;10.11;63.10;100347.34;4894105;28;20053;-57
2023/04/04 04:13:53;;;;;;;19.17;7.53;;;;;;;9.82;63.63;100288.53;4898927;28;20044;-57
2023/04/04 04:16:28;;;;;;;18.60;6.78;;;;;;;10.05;63.12;100339.56;4899172;28;20050;-57
2023/04/04 04:19:01;;;;;;;19.85;8.15;;;;;;;10.00;63.72;100341.38;4899380;28;20056;-57
2023/04/04 04:21:33;;;;;;;17.10;7.28;;;;;;;9.85;64.42;100342.44;4898732;28;20048;-57
2023/04/04 04:24:17;;;;;;;19.00;7.45;;;;;;;9.84;64.77;100341.56;4889139;28;21288;-57
2023/04/04 04:26:49;;;;;;;15.35;7.10;;;;;;;9.90;64.61;100336.25;4898715;28;20059;-57
2023/04/04 04:29:21;;;;;;;14.73;6.78;;;;;;;9.94;63.62;100322.31;4898300;28;20372;-57
2023/04/04 04:31:55;;;;;;;20.58;7.07;;;;;;;9.91;63.20;100311.91;4898411;28;20060;-57
2023/04/04 04:34:31;;;;;;;16.50;6.63;;;;;;;10.01;61.85;100317.88;4888715;28;20057;-57
2023/04/04 04:37:03;;;;;;;15.02;6.38;;;;;;;10.03;61.51;100310.00;4899027;28;20055;-57
2023/04/04 04:39:36;;;;;;;14.43;6.75;;;;;;;10.05;61.08;100297.81;4895976;28;20057;-57
2023/04/04 04:42:08;;;;;;;13.73;6.20;;;;;;;10.09;60.44;100289.06;4898371;28;20052;-57
2023/04/04 04:44:40;;;;;;;15.48;6.50;;;;;;;10.17;59.95;100288.94;4898683;28;20057;-56
2023/04/04 04:47:14;;;;;;;19.90;7.13;;;;;;;10.26;59.06;100292.28;4898134;28;20098;-57
2023/04/04 04:49:52;;;;;;;19.67;7.10;;;;;;;10.31;59.21;100295.72;4891040;28;20101;-57
2023/04/04 04:52:26;;;;;;;16.42;7.60;;;;;;;10.55;58.65;100299.69;4897708;28;20053;-57
2023/04/04 04:54:58;;;;;;;17.48;6.95;;;;;;;10.65;58.07;100289.09;4898240;28;20059;-57
2023/04/04 04:57:30;;;;;;;14.32;7.05;;;;;;;10.60;57.02;100294.41;4898236;28;20076;-57
2023/04/04 05:00:03;;;;;;;10.73;6.25;;;;;;;10.56;57.60;100279.69;4897761;28;20052;-58
2023/04/04 05:02:36;;;;;;;13.38;6.03;;;;;;;10.55;57.79;100283.16;4898402;28;20084;-57
2023/04/04 05:05:09;;;;;;;12.75;6.65;;;;;;;10.55;56.97;100283.16;4889124;28;20222;-57
2023/04/04 05:07:46;;;;;;;14.68;7.25;;;;;;;10.42;57.00;100292.94;4898188;28;20604;-57
2023/04/04 05:10:19;;;;;;;16.13;6.32;;;;;;;10.47;57.15;100285.03;4887727;28;20044;-57
2023/04/04 05:12:57;;;;;;;18.67;6.78;;;;;;;10.62;56.94;100269.13;4898761;28;20103;-57
2023/04/04 05:15:34;;;;;;;19.73;6.70;;;;;;;10.59;55.97;100258.72;4887687;28;20464;-57
2023/04/04 05:18:16;;;;;;;19.20;6.57;;;;;;;10.65;56.32;100263.84;4887030;28;20049;-57
2023/04/04 05:20:55;;;;;;;16.38;6.25;;;;;;;10.72;56.74;100252.38;4888346;28;20475;-57
2023/04/04 05:23:27;;;;;;;15.35;6.65;;;;;;;10.69;56.63;100222.84;4888262;28;20064;-58
2023/04/04 05:26:03;;;;;;;15.48;7.10;;;;;;;10.75;55.70;100244.50;4897215;28;20048;-57
2023/04/04 05:28:39;;;;;;;20.15;7.55;;;;;;;10.75;56.02;100254.94;4887557;28;20131;-57
2023/04/04 05:31:11;;;;;;;13.05;6.88;;;;;;;10.93;55.78;100250.28;4898173;28;20057;-57
2023/04/04 05:33:48;;;;;;;16.20;7.00;;;;;;;11.09;55.58;100249.13;4897403;28;20060;-57
2023/04/04 05:36:25;;;;;;;20.23;6.63;;;;;;;11.28;54.71;100238.28;4885854;28;20145;-57
2023/04/04 05:38:57;;;;;;;16.50;7.32;;;;;;;11.57;54.89;100251.66;4888599;28;20127;-57
2023/04/04 05:41:32;;;;;;;15.85;7.65;;;;;;;11.75;53.87;100244.31;4898025;28;20170;-58
2023/04/04 05:44:06;;;;;;;20.80;7.55;;;;;;;11.78;53.43;100249.47;4893161;28;20053;-57
2023/04/04 05:46:43;;;;;;;16.35;7.25;;;;;;;11.60;53.63;100246.34;4898184;28;20048;-57
2023/04/04 05:49:18;;;;;;;21.20;7.50;;;;;;;11.20;54.13;100200.06;4894905;28;20045;-57
2023/04/04 05:51:51;;;;;;;18.08;8.82;;;;;;;11.55;54.02;100245.59;4897036;28;20504;-57
2023/04/04 05:54:24;;;;;;;18.00;8.50;;;;;;;11.53;53.93;100244.78;4896930;28;20059;-57
2023/04/04 05:56:58;;;;;;;24.20;8.55;;;;;;;11.56;53.76;100244.72;4889792;28;20076;-57
2023/04/04 05:59:30;;;;;;;19.13;8.20;;;;;;;11.61;53.65;100232.41;4897394;28;20489;-57
2023/04/04 06:02:02;;;;;;;19.88;8.50;;;;;;;11.70;53.59;100248.78;4897105;28;20117;-57
2023/04/04 06:04:39;;;;;;;19.92;7.95;;;;;;;11.82;53.12;100232.81;4897515;28;20053;-57
2023/04/04 06:07:15;;;;;;;18.90;7.57;;;;;;;12.02;52.87;100222.78;4886911;28;20151;-57
2023/04/04 06:09:50;;;;;;;22.15;8.60;;;;;;;12.06;50.97;100207.88;4886638;28;20052;-58
2023/04/04 06:12:22;;;;;;;20.88;8.13;;;;;;;12.27;50.26;100222.22;4897021;28;20060;-58
2023/04/04 06:14:54;;;;;;;23.75;7.38;;;;;;;12.22;48.42;100218.84;4896945;28;20044;-58
2023/04/04 06:17:30;;;;;;;20.80;7.55;;;;;;;12.32;48.65;100224.72;4893196;28;20063;-58
2023/04/04 06:20:08;;;;;;;26.67;7.70;;;;;;;12.37;47.78;100213.22;4897425;28;20470;-57
2023/04/04 06:22:41;;;;;;;23.20;8.55;;;;;;;12.28;47.48;100218.69;4886836;28;20053;-57
2023/04/04 06:25:16;;;;;;;24.60;8.32;;;;;;;12.07;46.89;100220.91;4896820;28;20106;-59
2023/04/04 06:27:49;;;;;;;30.15;8.15;;;;;;;11.87;46.96;100187.34;4876935;28;20054;-57
2023/04/04 06:30:22;;;;;;;21.95;7.40;;;;;;;12.14;46.84;100215.56;4896572;28;20050;-58
2023/04/04 06:32:54;;;;;;;20.83;8.20;;;;;;;12.20;46.38;100220.63;4896974;28;20064;-57
2023/04/04 06:35:28;;;;;;;19.50;8.55;;;;;;;12.20;46.24;100210.16;4888502;28;20058;-57
2023/04/04 06:38:03;;;;;;;30.35;8.45;;;;;;;12.00;46.23;100172.19;4896943;28;20053;-58
2023/04/04 06:40:35;;;;;;;23.75;8.40;;;;;;;12.22;45.82;100203.97;4897064;28;20057;-59
2023/04/04 06:43:09;;;;;;;31.60;9.15;;;;;;;12.14;45.27;100200.69;4886836;28;20053;-58
2023/04/04 06:45:41;;;;;;;23.17;8.48;;;;;;;11.94;44.97;100198.53;4895405;28;20049;-57
2023/04/04 06:48:14;;;;;;;22.13;8.48;;;;;;;11.75;46.04;100192.81;4896638;28;20131;-58
2023/04/04 06:50:48;;;;;;;19.85;8.20;;;;;;;11.55;46.73;100197.63;4892837;28;20604;-58
2023/04/04 06:53:20;;;;;;;19.42;7.25;;;;;;;11.37;46.97;100183.19;4896083;28;20052;-58
2023/04/04 06:55:53;;;;;;;22.13;7.60;;;;;;;11.17;46.76;100194.91;4896446;28;20068;-58
2023/04/04 06:58:25;;;;;;;24.25;8.40;;;;;;;10.99;46.96;100184.81;4894457;28;20057;-58
2023/04/04 07:01:04;;;;;;;22.33;7.70;;;;;;;10.85;47.42;100181.59;4896484;28;20053;-58
2023/04/04 07:03:48;;;;;;;27.20;7.90;;;;;;;10.73;47.67;100195.75;4886494;28;20053;-58
2023/04/04 07:06:23;;;;;;;26.38;7.78;;;;;;;10.64;47.83;100182.88;4886441;28;20483;-59
2023/04/04 07:08:54;;;;;;;28.65;8.13;;;;;;;10.58;47.93;100173.38;4895061;28;20124;-59
2023/04/04 07:11:25;;;;;;;24.30;7.43;;;;;;;10.48;47.46;100171.81;4901004;28;20448;-58
2023/04/04 07:13:56;;;;;;;20.27;8.30;;;;;;;10.51;47.92;100187.47;4896938;28;20461;-58
2023/04/04 07:16:27;;;;;;;20.75;7.15;;;;;;;10.49;47.39;100178.78;4897213;28;20049;-58
2023/04/04 07:18:57;;;;;;;25.52;7.78;;;;;;;10.37;48.08;100174.63;4897621;28;20111;-58
2023/04/04 07:21:29;;;;;;;26.58;7.40;;;;;;;10.34;48.31;100185.13;4906778;28;20050;-58
2023/04/04 07:24:01;;;;;;;22.50;7.82;;;;;;;10.29;48.21;100182.59;4895867;28;20051;-59
2023/04/04 07:26:32;;;;;;;31.42;7.75;;;;;;;10.30;48.66;100179.06;4899132;28;20048;-59
2023/04/04 07:29:03;;;;;;;17.40;7.18;;;;;;;9.89;48.14;100130.97;4900044;28;20067;-59
2023/04/04 07:31:33;;;;;;;23.55;7.78;;;;;;;10.29;47.64;100185.19;4896706;28;20056;-59
2023/04/04 07:34:04;;;;;;;22.65;7.90;;;;;;;10.18;48.04;100184.44;4899086;28;20115;-59
2023/04/04 07:36:36;;;;;;;30.20;8.38;;;;;;;10.11;47.76;100188.06;4905124;28;20527;-59
2023/04/04 07:39:07;;;;;;;22.58;7.35;;;;;;;10.02;48.41;100198.66;4898284;28;20117;-59
2023/04/04 07:41:38;;;;;;;22.52;7.28;;;;;;;9.74;49.34;100191.22;4899046;28;20048;-59
2023/04/04 07:44:09;;;;;;;27.50;7.90;;;;;;;9.70;50.11;100207.78;4900419;28;20121;-59
2023/04/04 07:46:39;;;;;;;24.50;8.18;;;;;;;9.64;50.41;100219.19;4899015;28;20063;-57
2023/04/04 07:49:10;;;;;;;26.00;7.32;;;;;;;9.49;51.31;100209.81;4899266;28;20148;-58
2023/04/04 07:51:43;;;;;;;23.13;8.07;;;;;;;9.42;51.55;100223.81;4899359;28;20060;-58
2023/04/04 07:54:14;;;;;;;21.17;7.18;;;;;;;9.34;52.01;100225.66;4899567;28;22648;-60
2023/04/04 07:56:45;;;;;;;21.88;7.53;;;;;;;9.31;52.02;100225.69;4897701;28;20077;-58
2023/04/04 07:59:15;;;;;;;15.82;7.22;;;;;;;9.27;52.43;100234.44;4903519;28;20061;-59
2023/04/04 08:01:46;;;;;;;25.58;7.80;;;;;;;9.22;52.54;100241.44;4902204;28;20910;-60
2023/04/04 08:04:18;;;;;;;20.77;7.65;;;;;;;9.14;53.09;100248.50;4898876;28;20053;-59
2023/04/04 08:06:50;;;;;;;21.75;8.27;;;;;;;9.03;53.32;100236.41;4898329;28;20703;-61
2023/04/04 08:09:30;;;;;;;23.60;8.20;;;;;;;8.92;53.85;100233.06;4898898;28;20049;-59
2023/04/04 08:12:10;;;;;;;20.90;7.68;;;;;;;8.75;54.31;100232.38;4887727;28;20057;-60
2023/04/04 08:14:46;;;;;;;27.85;8.27;;;;;;;8.62;54.35;100235.06;4892389;28;20724;-59
2023/04/04 08:17:17;;;;;;;28.60;9.23;;;;;;;8.57;54.56;100244.69;4899104;28;20554;-59
2023/04/04 08:19:53;;;;;;;22.08;8.80;;;;;;;8.56;54.69;100240.34;4899576;28;20049;-58
2023/04/04 08:22:38;;;;;;;19.90;9.18;;;;;;;8.34;55.02;100217.94;4883011;28;20569;-58
2023/04/04 08:25:10;;;;;;;17.83;8.57;;;;;;;8.26;54.73;100193.69;4898196;28;20088;-58
2023/04/04 08:27:44;;;;;;;19.20;8.43;;;;;;;8.41;54.98;100245.66;4899187;28;20102;-59
2023/04/04 08:30:15;;;;;;;23.98;8.02;;;;;;;8.34;55.21;100243.97;4895692;28;20065;-59
2023/04/04 08:32:47;;;;;;;24.58;8.60;;;;;;;8.30;55.51;100242.25;4898088;28;20560;-59
2023/04/04 08:35:19;;;;;;;29.77;8.77;;;;;;;8.17;55.50;100257.97;4898768;28;20726;-59
2023/04/04 08:37:51;;;;;;;24.85;8.15;;;;;;;8.04;55.76;100240.72;4898415;28;20150;-60
2023/04/04 08:40:23;;;;;;;27.38;8.60;;;;;;;8.09;56.07;100244.13;4898692;28;20438;-59
2023/04/04 08:42:54;;;;;;;20.52;8.57;;;;;;;8.08;56.33;100247.59;4897472;28;20392;-59
2023/04/04 08:45:39;;;;;;;26.30;8.77;;;;;;;7.94;56.69;100228.63;4894152;28;20069;-60
2023/04/04 08:48:11;;;;;;;23.38;9.23;;;;;;;7.95;56.62;100251.16;4888367;28;20052;-59
2023/04/04 08:50:42;;;;;;;31.88;8.95;;;;;;;7.83;57.06;100240.81;4897758;28;20061;-60
2023/04/04 08:53:16;;;;;;;18.42;8.45;;;;;;;7.84;57.33;100252.94;4898751;28;20053;-60
2023/04/04 08:55:47;;;;;;;22.85;8.60;;;;;;;7.49;57.54;100209.81;4889257;28;20057;-60
2023/04/04 08:58:18;;;;;;;30.15;9.48;;;;;;;7.66;57.70;100260.00;4898655;28;20064;-60
2023/04/04 09:00:48;;;;;;;25.02;8.70;;;;;;;7.59;57.76;100250.50;4897703;28;21205;-60
2023/04/04 09:03:25;;;;;;;26.27;9.10;;;;;;;7.41;58.28;100232.34;4898997;28;20055;-60
2023/04/04 09:05:56;;;;;;;16.35;8.20;;;;;;;7.48;58.29;100265.25;4891963;28;20050;-59
2023/04/04 09:08:29;;;;;;;20.35;8.68;;;;;;;7.41;58.31;100253.16;4897278;28;20055;-59
2023/04/04 09:11:04;;;;;;;21.75;8.52;;;;;;;7.33;58.42;100261.81;4898761;28;20059;-59
2023/04/04 09:13:36;;;;;;;30.35;9.30;;;;;;;7.20;58.75;100262.75;4896786;28;20053;-59
2023/04/04 09:16:09;;;;;;;25.80;8.45;;;;;;;7.03;58.84;100257.56;4898469;28;20107;-59
2023/04/04 09:18:40;;;;;;;23.27;8.30;;;;;;;7.05;59.31;100267.97;4897752;28;20146;-59
2023/04/04 09:21:11;;;;;;;29.75;8.32;;;;;;;6.68;59.24;100213.50;4898657;28;20700;-59
2023/04/04 09:23:44;;;;;;;24.00;9.20;;;;;;;7.08;58.89;100283.56;4898572;28;20056;-58
2023/04/04 09:26:15;;;;;;;24.27;9.15;;;;;;;6.96;59.13;100270.59;4893739;28;20660;-58
2023/04/04 09:28:53;;;;;;;21.80;8.75;;;;;;;6.81;59.00;100246.34;4898764;28;20049;-58
2023/04/04 09:31:26;;;;;;;26.00;10.13;;;;;;;7.00;58.81;100285.31;4896351;28;20049;-58
2023/04/04 09:33:59;;;;;;;22.92;8.15;;;;;;;6.94;58.99;100295.69;4897590;28;20167;-59
2023/04/04 09:36:30;;;;;;;23.63;8.00;;;;;;;6.85;59.02;100299.19;4896620;28;20045;-59
2023/04/04 09:39:05;;;;;;;27.02;8.93;;;;;;;6.78;58.69;100287.06;4897175;28;20087;-58
2023/04/04 09:41:40;;;;;;;29.20;8.80;;;;;;;6.76;58.65;100304.38;4887667;28;20048;-59
2023/04/04 09:44:13;;;;;;;24.50;8.68;;;;;;;6.37;58.91;100260.22;4897178;28;20537;-58
2023/04/04 09:46:44;;;;;;;29.25;8.60;;;;;;;6.42;58.83;100287.06;4897432;28;20541;-58
2023/04/04 09:49:21;;;;;;;28.00;10.05;;;;;;;6.53;59.03;100293.97;4895352;28;20060;-59
2023/04/04 09:51:55;;;;;;;33.72;9.15;;;;;;;6.60;59.03;100319.94;4897343;28;20131;-59
2023/04/04 09:54:28;;;;;;;22.15;9.15;;;;;;;6.62;58.76;100318.22;4889604;28;20076;-58
2023/04/04 09:57:00;;;;;;;32.42;12.38;;;;;;;6.58;58.53;100326.00;4897028;28;20049;-58
2023/04/04 09:59:30;;;;;;;30.00;10.20;;;;;;;6.30;58.53;100289.63;4897845;28;20060;-58
2023/04/04 10:02:03;;;;;;;26.63;9.68;;;;;;;6.17;58.56;100272.31;4897330;28;20778;-59
2023/04/04 10:04:37;;;;;;;22.63;8.32;;;;;;;6.32;58.67;100307.81;4895946;28;20066;-58
2023/04/04 10:07:13;;;;;;;40.20;8.60;;;;;;;6.29;58.97;100308.69;4897538;28;20052;-59
2023/04/04 10:09:49;;;;;;;18.48;7.82;;;;;;;6.25;58.49;100314.72;4897049;28;20057;-57
2023/04/04 10:12:24;;;;;;;22.88;7.43;;;;;;;6.19;58.77;100306.91;4895933;28;20101;-58
2023/04/04 10:14:58;;;;;;;27.00;8.77;;;;;;;6.21;58.85;100336.31;4892269;28;20064;-58
2023/04/04 10:17:32;;;;;;;28.30;8.23;;;;;;;6.11;59.10;100329.38;4897098;28;20134;-59
2023/04/04 10:20:05;;;;;;;25.95;9.52;;;;;;;6.09;58.92;100331.09;4896709;28;20057;-59
2023/04/04 10:22:37;;;;;;;26.15;8.70;;;;;;;6.08;59.12;100335.41;4887026;28;20395;-59
2023/04/04 10:25:11;;;;;;;27.33;9.27;;;;;;;5.99;59.50;100325.91;4896957;28;20056;-59
2023/04/04 10:27:41;;;;;;;27.25;8.20;;;;;;;5.99;59.24;100341.47;4897589;28;20099;-58
2023/04/04 10:30:13;;;;;;;32.80;9.10;;;;;;;5.85;59.25;100327.53;4896205;28;20063;-58
2023/04/04 10:32:49;;;;;;;30.23;8.23;;;;;;;5.83;59.56;100324.06;4896694;28;20044;-58
2023/04/04 10:35:25;;;;;;;21.02;7.90;;;;;;;5.83;59.94;100334.44;4870127;28;20053;-58
2023/04/04 10:37:59;;;;;;;25.42;8.98;;;;;;;5.84;60.13;100330.97;4871003;28;20552;-58
2023/04/04 10:40:37;;;;;;;33.30;9.20;;;;;;;5.83;59.94;100344.81;4880933;28;20080;-58
2023/04/04 10:43:09;;;;;;;25.75;8.30;;;;;;;5.78;60.18;100356.88;4869883;28;20063;-58
2023/04/04 10:45:42;;;;;;;21.70;8.00;;;;;;;5.72;60.80;100352.53;4878847;28;20053;-58
2023/04/04 10:48:13;;;;;;;26.92;8.07;;;;;;;5.63;61.15;100342.97;4879449;28;20471;-59
2023/04/04 10:50:44;;;;;;;28.90;8.80;;;;;;;5.70;61.15;100353.41;4879804;28;20060;-58
2023/04/04 10:53:15;;;;;;;31.00;8.98;;;;;;;5.63;61.26;100350.75;4860888;28;20058;-58
2023/04/04 10:55:48;;;;;;;28.45;9.15;;;;;;;5.56;61.21;100351.56;4879353;28;20049;-58
2023/04/04 10:58:19;;;;;;;29.35;8.05;;;;;;;5.55;61.07;100338.63;4879560;28;20132;-59
2023/04/04 11:00:53;;;;;;;27.63;8.20;;;;;;;5.54;61.54;100331.69;4881444;28;20053;-58
2023/04/04 11:03:28;;;;;;;27.48;8.25;;;;;;;5.59;61.39;100341.25;4881904;28;20648;-58
2023/04/04 11:06:00;;;;;;;23.45;7.90;;;;;;;5.57;61.33;100345.56;4883332;28;20158;-58
2023/04/04 11:08:36;;;;;;;24.13;8.13;;;;;;;5.52;61.79;100344.66;4884193;28;20093;-58
2023/04/04 11:11:09;;;;;;;23.13;8.82;;;;;;;5.49;62.29;100352.44;4874187;28;20053;-58
2023/04/04 11:14:06;;;;;;;32.75;9.13;;;;;;;5.40;62.20;100345.44;4872692;28;20049;-58
2023/04/04 11:16:47;;;;;;;31.17;8.73;;;;;;;5.51;62.48;100358.47;4862993;28;20052;-58
2023/04/04 11:19:18;;;;;;;23.00;8.77;;;;;;;5.51;62.43;100368.84;4873790;28;20686;-58
2023/04/04 11:21:51;;;;;;;26.45;8.52;;;;;;;5.52;62.74;100375.78;4881886;28;20057;-58
2023/04/04 11:24:22;;;;;;;24.98;8.43;;;;;;;5.49;62.47;100369.69;4882145;28;20049;-58
2023/04/04 11:26:57;;;;;;;33.05;8.70;;;;;;;5.45;62.88;100368.81;4883036;28;20136;-59
2023/04/04 11:29:52;;;;;;;24.65;9.52;;;;;;;5.35;62.96;100367.88;4857852;28;20049;-58
2023/04/04 11:32:43;;;;;;;28.38;8.90;;;;;;;5.34;63.30;100366.16;4871866;28;20058;-58
2023/04/04 11:35:28;;;;;;;31.80;9.85;;;;;;;5.26;63.62;100346.22;4873243;28;20141;-58
2023/04/04 11:38:06;;;;;;;23.40;8.27;;;;;;;5.24;63.79;100348.81;4883691;28;20068;-58
2023/04/04 11:40:43;;;;;;;23.48;8.15;;;;;;;5.25;64.07;100360.03;4872662;28;20053;-58
2023/04/04 11:43:16;;;;;;;29.13;8.57;;;;;;;5.09;64.23;100349.59;4883442;28;20060;-58
2023/04/04 11:45:47;;;;;;;24.52;8.98;;;;;;;5.03;64.56;100367.66;4872847;28;20057;-58
2023/04/04 11:48:20;;;;;;;21.85;9.57;;;;;;;4.94;65.02;100364.97;4882247;28;20049;-58
2023/04/04 11:50:51;;;;;;;31.58;9.70;;;;;;;4.19;65.38;100259.06;4883635;28;20072;-58
2023/04/04 11:53:25;;;;;;;36.38;10.77;;;;;;;4.65;66.61;100363.00;4882654;28;20057;-58